sensor_id;sensor_type;location;lat;lon;timestamp;P1;durP1;ratioP1;P2;durP2;ratioP2
50651;SDS011;66928;52.086;5.240;2023-03-14T06:33:58;7.7;;;4.3;;
50651;SDS011;66928;52.086;5.240;2023-03-14T06:35:35;4.5;;;2.8;;
50651;SDS011;66928;52.086;5.240;2023-03-14T06:37:11;3.0;;;1.6;;
50651;SDS011;66928;52.086;5.240;2023-03-14T06:40:23;2.4;;;1.4;;
50651;SDS011;66928;52.086;5.240;2023-03-14T06:41:59;3.5;;;1.5;;
50651;SDS011;66928;52.086;5.240;2023-03-14T06:43:35;2.9;;;1.4;;
50651;SDS011;66928;52.086;5.240;2023-03-14T06:45:11;1.9;;;1.3;;
50651;SDS011;66928;52.086;5.240;2023-03-14T06:48:25;2.0;;;1.4;;
50651;SDS011;66928;52.086;5.240;2023-03-14T06:50:01;4.61;;;1.3;;
50651;SDS011;66928;52.086;5.240;2023-03-14T06:51:39;2.9;;;1.3;;
50651;SDS011;66928;52.086;5.240;2023-03-14T06:54:52;4.7;;;2.0;;
50651;SDS011;66928;52.086;5.240;2023-03-14T06:56:28;2.6;;;1.2;;
50651;SDS011;66928;52.086;5.240;2023-03-14T06:58:04;3.4;;;1.2;;
50651;SDS011;66928;52.086;5.240;2023-03-14T07:01:19;2.9;;;1.2;;
50651;SDS011;66928;52.086;5.240;2023-03-14T07:02:58;3.2;;;1.5;;
50651;SDS011;66928;52.086;5.240;2023-03-14T07:04:34;2.4;;;1.3;;
50651;SDS011;66928;52.086;5.240;2023-03-14T07:06:10;2.8;;;1.2;;
50651;SDS011;66928;52.086;5.240;2023-03-14T07:09:22;1.9;;;1.2;;
50651;SDS011;66928;52.086;5.240;2023-03-14T07:10:59;2.4;;;1.3;;
50651;SDS011;66928;52.086;5.240;2023-03-14T07:12:35;2.6;;;1.5;;
50651;SDS011;66928;52.086;5.240;2023-03-14T07:15:47;3.6;;;1.7;;
50651;SDS011;66928;52.086;5.240;2023-03-14T07:17:23;3.0;;;1.6;;
50651;SDS011;66928;52.086;5.240;2023-03-14T07:18:59;2.9;;;1.7;;
50651;SDS011;66928;52.086;5.240;2023-03-14T07:22:13;4.2;;;1.7;;
50651;SDS011;66928;52.086;5.240;2023-03-14T07:23:49;3.6;;;1.6;;
50651;SDS011;66928;52.086;5.240;2023-03-14T07:25:25;3.6;;;1.6;;
50651;SDS011;66928;52.086;5.240;2023-03-14T07:27:02;3.5;;;1.9;;
50651;SDS011;66928;52.086;5.240;2023-03-14T07:30:14;5.0;;;1.9;;
50651;SDS011;66928;52.086;5.240;2023-03-14T07:31:50;3.0;;;1.6;;
50651;SDS011;66928;52.086;5.240;2023-03-14T07:33:26;6.0;;;1.7;;
50651;SDS011;66928;52.086;5.240;2023-03-14T07:36:40;4.0;;;1.8;;
50651;SDS011;66928;52.086;5.240;2023-03-14T07:38:16;3.8;;;1.8;;
50651;SDS011;66928;52.086;5.240;2023-03-14T07:39:52;3.5;;;1.8;;
50651;SDS011;66928;52.086;5.240;2023-03-14T07:43:04;3.8;;;1.6;;
50651;SDS011;66928;52.086;5.240;2023-03-14T07:44:41;2.6;;;1.5;;
50651;SDS011;66928;52.086;5.240;2023-03-14T07:46:17;3.8;;;1.4;;
50651;SDS011;66928;52.086;5.240;2023-03-14T07:47:52;3.2;;;1.4;;
50651;SDS011;66928;52.086;5.240;2023-03-14T07:51:05;2.31;;;1.4;;
50651;SDS011;66928;52.086;5.240;2023-03-14T07:54:17;3.0;;;1.5;;
50651;SDS011;66928;52.086;5.240;2023-03-14T07:57:29;3.0;;;1.5;;
50651;SDS011;66928;52.086;5.240;2023-03-14T07:59:05;2.8;;;1.3;;
50651;SDS011;66928;52.086;5.240;2023-03-14T08:00:41;2.8;;;1.5;;
50651;SDS011;66928;52.086;5.240;2023-03-14T08:03:55;6.5;;;1.5;;
50651;SDS011;66928;52.086;5.240;2023-03-14T08:05:33;3.1;;;1.3;;
50651;SDS011;66928;52.086;5.240;2023-03-14T08:07:10;2.5;;;1.4;;
50651;SDS011;66928;52.086;5.240;2023-03-14T08:08:46;3.8;;;1.2;;
50651;SDS011;66928;52.086;5.240;2023-03-14T08:11:58;4.41;;;1.4;;
50651;SDS011;66928;52.086;5.240;2023-03-14T08:13:35;3.4;;;1.5;;
50651;SDS011;66928;52.086;5.240;2023-03-14T08:15:13;4.41;;;1.3;;
50651;SDS011;66928;52.086;5.240;2023-03-14T08:18:26;1.9;;;1.11;;
50651;SDS011;66928;52.086;5.240;2023-03-14T08:20:02;5.11;;;1.5;;
50651;SDS011;66928;52.086;5.240;2023-03-14T08:21:40;3.1;;;1.4;;
50651;SDS011;66928;52.086;5.240;2023-03-14T08:24:51;4.7;;;1.7;;
50651;SDS011;66928;52.086;5.240;2023-03-14T08:26:27;4.2;;;1.7;;
50651;SDS011;66928;52.086;5.240;2023-03-14T08:28:04;4.1;;;1.4;;
50651;SDS011;66928;52.086;5.240;2023-03-14T08:29:40;6.2;;;1.5;;
50651;SDS011;66928;52.086;5.240;2023-03-14T08:32:53;3.1;;;1.2;;
50651;SDS011;66928;52.086;5.240;2023-03-14T08:34:32;3.8;;;1.3;;
50651;SDS011;66928;52.086;5.240;2023-03-14T08:36:09;2.5;;;1.0;;
50651;SDS011;66928;52.086;5.240;2023-03-14T08:39:22;4.0;;;1.4;;
50651;SDS011;66928;52.086;5.240;2023-03-14T08:40:59;4.61;;;1.4;;
50651;SDS011;66928;52.086;5.240;2023-03-14T08:42:37;5.3;;;1.3;;
50651;SDS011;66928;52.086;5.240;2023-03-14T08:45:50;4.91;;;1.3;;
50651;SDS011;66928;52.086;5.240;2023-03-14T08:47:26;5.2;;;1.7;;
50651;SDS011;66928;52.086;5.240;2023-03-14T08:49:02;3.9;;;1.5;;
50651;SDS011;66928;52.086;5.240;2023-03-14T08:50:39;4.3;;;1.3;;
50651;SDS011;66928;52.086;5.240;2023-03-14T08:53:52;7.1;;;1.7;;
50651;SDS011;66928;52.086;5.240;2023-03-14T08:55:28;4.2;;;1.5;;
50651;SDS011;66928;52.086;5.240;2023-03-14T08:57:05;6.7;;;1.7;;
50651;SDS011;66928;52.086;5.240;2023-03-14T09:00:18;4.8;;;1.7;;
50651;SDS011;66928;52.086;5.240;2023-03-14T09:01:55;5.3;;;2.0;;
50651;SDS011;66928;52.086;5.240;2023-03-14T09:03:31;9.31;;;1.9;;
50651;SDS011;66928;52.086;5.240;2023-03-14T09:06:44;8.31;;;1.8;;
50651;SDS011;66928;52.086;5.240;2023-03-14T09:08:21;6.4;;;2.4;;
50651;SDS011;66928;52.086;5.240;2023-03-14T09:09:57;8.81;;;2.31;;
50651;SDS011;66928;52.086;5.240;2023-03-14T09:11:33;7.5;;;2.31;;
50651;SDS011;66928;52.086;5.240;2023-03-14T09:14:45;8.4;;;2.31;;
50651;SDS011;66928;52.086;5.240;2023-03-14T09:16:21;11.1;;;2.7;;
50651;SDS011;66928;52.086;5.240;2023-03-14T09:17:57;10.8;;;3.1;;
50651;SDS011;66928;52.086;5.240;2023-03-14T09:21:09;8.9;;;2.9;;
50651;SDS011;66928;52.086;5.240;2023-03-14T09:22:45;12.3;;;3.2;;
50651;SDS011;66928;52.086;5.240;2023-03-14T09:24:22;11.7;;;3.2;;
50651;SDS011;66928;52.086;5.240;2023-03-14T09:27:35;14.3;;;3.2;;
50651;SDS011;66928;52.086;5.240;2023-03-14T09:29:11;12.5;;;3.6;;
50651;SDS011;66928;52.086;5.240;2023-03-14T09:30:47;14.6;;;3.6;;
50651;SDS011;66928;52.086;5.240;2023-03-14T09:33:59;15.3;;;3.7;;
50651;SDS011;66928;52.086;5.240;2023-03-14T09:35:35;15.3;;;3.7;;
50651;SDS011;66928;52.086;5.240;2023-03-14T09:37:12;15.6;;;4.3;;
50651;SDS011;66928;52.086;5.240;2023-03-14T09:38:48;14.4;;;3.6;;
50651;SDS011;66928;52.086;5.240;2023-03-14T09:42:10;14.5;;;3.9;;
50651;SDS011;66928;52.086;5.240;2023-03-14T09:43:52;15.1;;;3.5;;
50651;SDS011;66928;52.086;5.240;2023-03-14T09:45:39;15.1;;;3.6;;
50651;SDS011;66928;52.086;5.240;2023-03-14T09:47:17;15.4;;;4.2;;
50651;SDS011;66928;52.086;5.240;2023-03-14T09:50:32;16.4;;;3.6;;
50651;SDS011;66928;52.086;5.240;2023-03-14T09:52:14;14.1;;;3.7;;
50651;SDS011;66928;52.086;5.240;2023-03-14T09:53:55;16.5;;;3.8;;
50651;SDS011;66928;52.086;5.240;2023-03-14T09:55:31;14.1;;;3.5;;
50651;SDS011;66928;52.086;5.240;2023-03-14T09:58:50;18.61;;;4.2;;
50651;SDS011;66928;52.086;5.240;2023-03-14T10:00:30;16.7;;;4.2;;
50651;SDS011;66928;52.086;5.240;2023-03-14T10:02:13;15.2;;;4.0;;
50651;SDS011;66928;52.086;5.240;2023-03-14T10:03:53;15.3;;;4.41;;
50651;SDS011;66928;52.086;5.240;2023-03-14T10:07:08;14.5;;;4.3;;
50651;SDS011;66928;52.086;5.240;2023-03-14T10:08:50;18.0;;;4.5;;
50651;SDS011;66928;52.086;5.240;2023-03-14T10:10:26;17.8;;;4.0;;
50651;SDS011;66928;52.086;5.240;2023-03-14T10:13:47;15.1;;;4.0;;
50651;SDS011;66928;52.086;5.240;2023-03-14T10:15:26;14.6;;;4.3;;
50651;SDS011;66928;52.086;5.240;2023-03-14T10:17:07;16.5;;;4.2;;
50651;SDS011;66928;52.086;5.240;2023-03-14T10:18:46;17.7;;;4.7;;
50651;SDS011;66928;52.086;5.240;2023-03-14T10:22:05;19.2;;;4.5;;
50651;SDS011;66928;52.086;5.240;2023-03-14T10:23:50;18.3;;;4.91;;
50651;SDS011;66928;52.086;5.240;2023-03-14T10:25:27;15.7;;;3.7;;
50651;SDS011;66928;52.086;5.240;2023-03-14T10:27:08;19.61;;;4.41;;
50651;SDS011;66928;52.086;5.240;2023-03-14T10:32:20;18.3;;;4.3;;
50651;SDS011;66928;52.086;5.240;2023-03-14T10:34:04;16.9;;;4.0;;
50651;SDS011;66928;52.086;5.240;2023-03-14T10:35:41;17.11;;;4.41;;
50651;SDS011;66928;52.086;5.240;2023-03-14T10:38:57;16.61;;;4.1;;
50651;SDS011;66928;52.086;5.240;2023-03-14T10:40:52;17.5;;;4.41;;
50651;SDS011;66928;52.086;5.240;2023-03-14T10:42:31;14.7;;;4.0;;
50651;SDS011;66928;52.086;5.240;2023-03-14T10:44:09;15.3;;;4.41;;
50651;SDS011;66928;52.086;5.240;2023-03-14T10:45:51;14.0;;;4.0;;
50651;SDS011;66928;52.086;5.240;2023-03-14T10:49:15;17.7;;;4.3;;
50651;SDS011;66928;52.086;5.240;2023-03-14T10:51:03;17.61;;;4.2;;
50651;SDS011;66928;52.086;5.240;2023-03-14T10:52:46;17.5;;;4.5;;
50651;SDS011;66928;52.086;5.240;2023-03-14T10:54:24;20.11;;;4.8;;
50651;SDS011;66928;52.086;5.240;2023-03-14T10:57:42;20.9;;;4.91;;
50651;SDS011;66928;52.086;5.240;2023-03-14T10:59:19;17.0;;;4.5;;
50651;SDS011;66928;52.086;5.240;2023-03-14T11:00:59;17.91;;;4.5;;
50651;SDS011;66928;52.086;5.240;2023-03-14T11:02:49;23.0;;;5.0;;
50651;SDS011;66928;52.086;5.240;2023-03-14T11:04:45;20.2;;;5.2;;
50651;SDS011;66928;52.086;5.240;2023-03-14T11:06:36;19.11;;;5.11;;
50651;SDS011;66928;52.086;5.240;2023-03-14T11:10:08;21.1;;;5.3;;
50651;SDS011;66928;52.086;5.240;2023-03-14T11:11:53;26.4;;;6.1;;
50651;SDS011;66928;52.086;5.240;2023-03-14T11:13:41;19.41;;;4.7;;
50651;SDS011;66928;52.086;5.240;2023-03-14T11:15:27;21.5;;;5.4;;
50651;SDS011;66928;52.086;5.240;2023-03-14T11:17:11;19.61;;;5.3;;
50651;SDS011;66928;52.086;5.240;2023-03-14T11:21:05;19.3;;;5.2;;
50651;SDS011;66928;52.086;5.240;2023-03-14T11:22:49;21.5;;;4.8;;
50651;SDS011;66928;52.086;5.240;2023-03-14T11:24:39;20.0;;;4.8;;
50651;SDS011;66928;52.086;5.240;2023-03-14T11:26:31;19.61;;;4.61;;
50651;SDS011;66928;52.086;5.240;2023-03-14T11:28:15;18.91;;;4.8;;
50651;SDS011;66928;52.086;5.240;2023-03-14T11:30:00;17.11;;;4.61;;
50651;SDS011;66928;52.086;5.240;2023-03-14T11:31:49;18.11;;;4.7;;
50651;SDS011;66928;52.086;5.240;2023-03-14T11:35:30;18.2;;;4.91;;
50651;SDS011;66928;52.086;5.240;2023-03-14T11:37:12;19.11;;;4.41;;
50651;SDS011;66928;52.086;5.240;2023-03-14T11:38:55;18.61;;;4.8;;
50651;SDS011;66928;52.086;5.240;2023-03-14T11:40:33;17.8;;;4.61;;
50651;SDS011;66928;52.086;5.240;2023-03-14T11:42:12;17.41;;;4.3;;
50651;SDS011;66928;52.086;5.240;2023-03-14T11:45:32;14.4;;;4.41;;
50651;SDS011;66928;52.086;5.240;2023-03-14T11:47:14;18.2;;;4.41;;
50651;SDS011;66928;52.086;5.240;2023-03-14T11:48:58;14.6;;;4.0;;
50651;SDS011;66928;52.086;5.240;2023-03-14T11:50:39;14.6;;;4.0;;
50651;SDS011;66928;52.086;5.240;2023-03-14T11:54:04;16.3;;;3.9;;
50651;SDS011;66928;52.086;5.240;2023-03-14T11:55:50;14.7;;;3.5;;
50651;SDS011;66928;52.086;5.240;2023-03-14T11:57:26;13.8;;;3.6;;
50651;SDS011;66928;52.086;5.240;2023-03-14T11:59:03;10.6;;;3.2;;
50651;SDS011;66928;52.086;5.240;2023-03-14T12:02:26;11.3;;;3.3;;
50651;SDS011;66928;52.086;5.240;2023-03-14T12:04:16;13.2;;;3.7;;
50651;SDS011;66928;52.086;5.240;2023-03-14T12:06:09;12.5;;;3.4;;
50651;SDS011;66928;52.086;5.240;2023-03-14T12:08:02;9.9;;;3.0;;
50651;SDS011;66928;52.086;5.240;2023-03-14T12:10:21;10.21;;;2.9;;
50651;SDS011;66928;52.086;5.240;2023-03-14T12:11:58;8.5;;;2.6;;
50651;SDS011;66928;52.086;5.240;2023-03-14T12:13:38;10.7;;;3.5;;
50651;SDS011;66928;52.086;5.240;2023-03-14T12:16:56;10.9;;;3.0;;
50651;SDS011;66928;52.086;5.240;2023-03-14T12:18:34;8.9;;;3.0;;
50651;SDS011;66928;52.086;5.240;2023-03-14T12:20:15;11.9;;;2.9;;
50651;SDS011;66928;52.086;5.240;2023-03-14T12:21:56;8.6;;;2.8;;
50651;SDS011;66928;52.086;5.240;2023-03-14T12:25:20;8.6;;;2.8;;
50651;SDS011;66928;52.086;5.240;2023-03-14T12:26:59;8.31;;;2.5;;
50651;SDS011;66928;52.086;5.240;2023-03-14T12:28:37;9.1;;;2.6;;
50651;SDS011;66928;52.086;5.240;2023-03-14T12:32:07;9.81;;;2.8;;
50651;SDS011;66928;52.086;5.240;2023-03-14T12:34:00;9.71;;;2.9;;
50651;SDS011;66928;52.086;5.240;2023-03-14T12:35:39;8.9;;;3.0;;
50651;SDS011;66928;52.086;5.240;2023-03-14T12:37:19;8.6;;;2.8;;
50651;SDS011;66928;52.086;5.240;2023-03-14T12:39:07;10.21;;;3.0;;
50651;SDS011;66928;52.086;5.240;2023-03-14T12:40:56;12.0;;;2.9;;
50651;SDS011;66928;52.086;5.240;2023-03-14T12:44:38;7.3;;;2.7;;
50651;SDS011;66928;52.086;5.240;2023-03-14T12:46:24;8.9;;;2.8;;
50651;SDS011;66928;52.086;5.240;2023-03-14T12:48:06;7.7;;;2.4;;
50651;SDS011;66928;52.086;5.240;2023-03-14T12:49:46;5.7;;;2.21;;
50651;SDS011;66928;52.086;5.240;2023-03-14T12:51:28;8.9;;;2.31;;
50651;SDS011;66928;52.086;5.240;2023-03-14T12:56:20;7.5;;;2.4;;
50651;SDS011;66928;52.086;5.240;2023-03-14T12:58:02;6.9;;;2.4;;
50651;SDS011;66928;52.086;5.240;2023-03-14T12:59:47;6.2;;;2.31;;
50651;SDS011;66928;52.086;5.240;2023-03-14T13:03:12;8.6;;;2.5;;
50651;SDS011;66928;52.086;5.240;2023-03-14T13:05:01;8.4;;;2.8;;
50651;SDS011;66928;52.086;5.240;2023-03-14T13:06:49;7.6;;;2.4;;
50651;SDS011;66928;52.086;5.240;2023-03-14T13:08:36;8.5;;;2.8;;
50651;SDS011;66928;52.086;5.240;2023-03-14T13:10:16;8.81;;;2.5;;
50651;SDS011;66928;52.086;5.240;2023-03-14T13:13:40;5.9;;;2.5;;
50651;SDS011;66928;52.086;5.240;2023-03-14T13:15:22;9.71;;;2.9;;
50651;SDS011;66928;52.086;5.240;2023-03-14T13:17:04;8.2;;;2.6;;
50651;SDS011;66928;52.086;5.240;2023-03-14T13:18:46;8.6;;;2.7;;
50651;SDS011;66928;52.086;5.240;2023-03-14T13:22:12;7.2;;;2.4;;
50651;SDS011;66928;52.086;5.240;2023-03-14T13:23:56;8.5;;;2.6;;
50651;SDS011;66928;52.086;5.240;2023-03-14T13:25:35;6.4;;;2.4;;
50651;SDS011;66928;52.086;5.240;2023-03-14T13:27:14;8.71;;;2.5;;
50651;SDS011;66928;52.086;5.240;2023-03-14T13:28:53;7.5;;;2.1;;
50651;SDS011;66928;52.086;5.240;2023-03-14T13:32:16;8.4;;;2.31;;
50651;SDS011;66928;52.086;5.240;2023-03-14T13:33:57;8.4;;;2.31;;
50651;SDS011;66928;52.086;5.240;2023-03-14T13:35:38;7.5;;;2.31;;
50651;SDS011;66928;52.086;5.240;2023-03-14T13:37:19;4.8;;;2.1;;
50651;SDS011;66928;52.086;5.240;2023-03-14T13:40:36;5.6;;;2.21;;
50651;SDS011;66928;52.086;5.240;2023-03-14T13:42:14;7.6;;;2.31;;
50651;SDS011;66928;52.086;5.240;2023-03-14T13:44:03;5.6;;;2.4;;
50651;SDS011;66928;52.086;5.240;2023-03-14T13:45:43;9.4;;;2.4;;
50651;SDS011;66928;52.086;5.240;2023-03-14T13:49:05;9.31;;;2.6;;
50651;SDS011;66928;52.086;5.240;2023-03-14T13:50:55;8.5;;;2.8;;
50651;SDS011;66928;52.086;5.240;2023-03-14T13:52:35;10.0;;;2.7;;
50651;SDS011;66928;52.086;5.240;2023-03-14T13:54:13;9.81;;;2.7;;
50651;SDS011;66928;52.086;5.240;2023-03-14T13:57:42;9.31;;;2.9;;
50651;SDS011;66928;52.086;5.240;2023-03-14T13:59:21;9.31;;;2.6;;
50651;SDS011;66928;52.086;5.240;2023-03-14T14:01:00;8.71;;;2.9;;
50651;SDS011;66928;52.086;5.240;2023-03-14T14:02:39;7.9;;;2.4;;
50651;SDS011;66928;52.086;5.240;2023-03-14T14:05:55;9.6;;;2.8;;
50651;SDS011;66928;52.086;5.240;2023-03-14T14:07:33;10.5;;;2.8;;
50651;SDS011;66928;52.086;5.240;2023-03-14T14:09:10;8.31;;;2.5;;
50651;SDS011;66928;52.086;5.240;2023-03-14T14:10:49;9.81;;;2.5;;
50651;SDS011;66928;52.086;5.240;2023-03-14T14:14:13;10.21;;;2.9;;
50651;SDS011;66928;52.086;5.240;2023-03-14T14:15:55;8.6;;;2.4;;
50651;SDS011;66928;52.086;5.240;2023-03-14T14:17:36;7.9;;;2.5;;
50651;SDS011;66928;52.086;5.240;2023-03-14T14:19:16;9.1;;;2.7;;
50651;SDS011;66928;52.086;5.240;2023-03-14T14:22:35;8.31;;;2.31;;
50651;SDS011;66928;52.086;5.240;2023-03-14T14:25:49;9.4;;;2.4;;
50651;SDS011;66928;52.086;5.240;2023-03-14T14:27:27;7.9;;;2.6;;
50651;SDS011;66928;52.086;5.240;2023-03-14T14:31:05;6.7;;;2.5;;
50651;SDS011;66928;52.086;5.240;2023-03-14T14:32:53;6.0;;;2.31;;
50651;SDS011;66928;52.086;5.240;2023-03-14T14:34:55;7.4;;;2.21;;
50651;SDS011;66928;52.086;5.240;2023-03-14T14:36:36;6.5;;;2.4;;
50651;SDS011;66928;52.086;5.240;2023-03-14T14:38:16;5.7;;;2.6;;
50651;SDS011;66928;52.086;5.240;2023-03-14T14:41:33;6.2;;;2.21;;
50651;SDS011;66928;52.086;5.240;2023-03-14T14:43:12;6.4;;;2.1;;
50651;SDS011;66928;52.086;5.240;2023-03-14T14:44:53;6.4;;;2.21;;
50651;SDS011;66928;52.086;5.240;2023-03-14T14:46:32;6.4;;;2.21;;
50651;SDS011;66928;52.086;5.240;2023-03-14T14:49:49;6.4;;;2.1;;
50651;SDS011;66928;52.086;5.240;2023-03-14T14:51:30;6.2;;;2.21;;
50651;SDS011;66928;52.086;5.240;2023-03-14T14:53:19;5.8;;;2.21;;
50651;SDS011;66928;52.086;5.240;2023-03-14T14:55:11;6.4;;;2.31;;
50651;SDS011;66928;52.086;5.240;2023-03-14T14:56:52;8.9;;;2.0;;
50651;SDS011;66928;52.086;5.240;2023-03-14T15:00:17;7.3;;;2.21;;
50651;SDS011;66928;52.086;5.240;2023-03-14T15:01:58;7.3;;;2.7;;
50651;SDS011;66928;52.086;5.240;2023-03-14T15:03:35;7.7;;;2.5;;
50651;SDS011;66928;52.086;5.240;2023-03-14T15:05:12;10.1;;;2.9;;
50651;SDS011;66928;52.086;5.240;2023-03-14T15:08:28;10.1;;;2.6;;
50651;SDS011;66928;52.086;5.240;2023-03-14T15:10:05;10.1;;;3.0;;
50651;SDS011;66928;52.086;5.240;2023-03-14T15:11:45;9.1;;;2.31;;
50651;SDS011;66928;52.086;5.240;2023-03-14T15:14:58;9.1;;;2.5;;
50651;SDS011;66928;52.086;5.240;2023-03-14T15:16:34;5.3;;;2.31;;
50651;SDS011;66928;52.086;5.240;2023-03-14T15:18:13;7.0;;;2.31;;
50651;SDS011;66928;52.086;5.240;2023-03-14T15:19:51;7.2;;;2.4;;
50651;SDS011;66928;52.086;5.240;2023-03-14T15:23:07;10.5;;;2.5;;
50651;SDS011;66928;52.086;5.240;2023-03-14T15:24:45;6.9;;;2.4;;
50651;SDS011;66928;52.086;5.240;2023-03-14T15:26:22;8.9;;;2.7;;
50651;SDS011;66928;52.086;5.240;2023-03-14T15:29:37;7.2;;;2.31;;
50651;SDS011;66928;52.086;5.240;2023-03-14T15:31:14;7.6;;;2.31;;
50651;SDS011;66928;52.086;5.240;2023-03-14T15:32:51;7.8;;;2.21;;
50651;SDS011;66928;52.086;5.240;2023-03-14T15:34:28;9.9;;;2.5;;
50651;SDS011;66928;52.086;5.240;2023-03-14T15:37:51;7.7;;;2.31;;
50651;SDS011;66928;52.086;5.240;2023-03-14T15:39:27;4.5;;;2.0;;
50651;SDS011;66928;52.086;5.240;2023-03-14T15:41:03;8.1;;;2.6;;
50651;SDS011;66928;52.086;5.240;2023-03-14T15:44:15;6.0;;;2.4;;
50651;SDS011;66928;52.086;5.240;2023-03-14T15:45:52;6.2;;;2.21;;
50651;SDS011;66928;52.086;5.240;2023-03-14T15:47:28;6.1;;;2.1;;
50651;SDS011;66928;52.086;5.240;2023-03-14T15:49:04;6.1;;;2.21;;
50651;SDS011;66928;52.086;5.240;2023-03-14T15:52:16;6.3;;;2.6;;
50651;SDS011;66928;52.086;5.240;2023-03-14T15:53:52;9.71;;;2.7;;
50651;SDS011;66928;52.086;5.240;2023-03-14T15:55:28;6.6;;;2.8;;
50651;SDS011;66928;52.086;5.240;2023-03-14T15:58:40;7.8;;;2.6;;
50651;SDS011;66928;52.086;5.240;2023-03-14T16:00:18;7.6;;;2.6;;
50651;SDS011;66928;52.086;5.240;2023-03-14T16:01:56;7.0;;;2.5;;
50651;SDS011;66928;52.086;5.240;2023-03-14T16:05:08;8.31;;;2.7;;
50651;SDS011;66928;52.086;5.240;2023-03-14T16:06:46;7.1;;;2.7;;
50651;SDS011;66928;52.086;5.240;2023-03-14T16:08:22;9.6;;;3.2;;
50651;SDS011;66928;52.086;5.240;2023-03-14T16:09:59;7.9;;;2.6;;
50651;SDS011;66928;52.086;5.240;2023-03-14T16:13:12;7.2;;;2.8;;
50651;SDS011;66928;52.086;5.240;2023-03-14T16:14:47;9.31;;;2.6;;
50651;SDS011;66928;52.086;5.240;2023-03-14T16:16:24;6.2;;;2.31;;
50651;SDS011;66928;52.086;5.240;2023-03-14T16:19:36;8.2;;;2.4;;
50651;SDS011;66928;52.086;5.240;2023-03-14T16:21:13;8.0;;;2.5;;
50651;SDS011;66928;52.086;5.240;2023-03-14T16:22:50;7.6;;;2.6;;
50651;SDS011;66928;52.086;5.240;2023-03-14T16:26:05;8.0;;;2.9;;
50651;SDS011;66928;52.086;5.240;2023-03-14T16:27:42;9.5;;;3.0;;
50651;SDS011;66928;52.086;5.240;2023-03-14T16:29:18;10.6;;;2.8;;
50651;SDS011;66928;52.086;5.240;2023-03-14T16:30:58;10.1;;;2.9;;
50651;SDS011;66928;52.086;5.240;2023-03-14T16:34:12;9.9;;;2.9;;
50651;SDS011;66928;52.086;5.240;2023-03-14T16:35:52;9.71;;;2.7;;
50651;SDS011;66928;52.086;5.240;2023-03-14T16:37:33;9.6;;;2.9;;
50651;SDS011;66928;52.086;5.240;2023-03-14T16:40:56;8.6;;;2.5;;
50651;SDS011;66928;52.086;5.240;2023-03-14T16:42:34;10.0;;;2.5;;
50651;SDS011;66928;52.086;5.240;2023-03-14T16:44:11;8.5;;;2.8;;
50651;SDS011;66928;52.086;5.240;2023-03-14T16:45:48;9.31;;;2.9;;
50651;SDS011;66928;52.086;5.240;2023-03-14T16:49:01;9.4;;;2.7;;
50651;SDS011;66928;52.086;5.240;2023-03-14T16:50:38;8.1;;;2.6;;
50651;SDS011;66928;52.086;5.240;2023-03-14T16:52:15;7.6;;;2.6;;
50651;SDS011;66928;52.086;5.240;2023-03-14T16:53:51;5.2;;;2.1;;
50651;SDS011;66928;52.086;5.240;2023-03-14T16:57:04;8.5;;;2.4;;
50651;SDS011;66928;52.086;5.240;2023-03-14T16:58:40;9.5;;;2.4;;
50651;SDS011;66928;52.086;5.240;2023-03-14T17:00:17;6.7;;;2.31;;
50651;SDS011;66928;52.086;5.240;2023-03-14T17:03:30;8.0;;;2.6;;
50651;SDS011;66928;52.086;5.240;2023-03-14T17:05:06;7.6;;;2.4;;
50651;SDS011;66928;52.086;5.240;2023-03-14T17:06:42;8.5;;;2.21;;
50651;SDS011;66928;52.086;5.240;2023-03-14T17:09:55;7.6;;;2.31;;
50651;SDS011;66928;52.086;5.240;2023-03-14T17:11:32;7.1;;;2.5;;
50651;SDS011;66928;52.086;5.240;2023-03-14T17:13:09;6.8;;;2.21;;
50651;SDS011;66928;52.086;5.240;2023-03-14T17:14:46;8.71;;;2.31;;
50651;SDS011;66928;52.086;5.240;2023-03-14T17:17:58;5.7;;;2.31;;
50651;SDS011;66928;52.086;5.240;2023-03-14T17:19:34;7.3;;;2.8;;
50651;SDS011;66928;52.086;5.240;2023-03-14T17:21:10;7.4;;;2.5;;
50651;SDS011;66928;52.086;5.240;2023-03-14T17:24:23;9.4;;;3.1;;
50651;SDS011;66928;52.086;5.240;2023-03-14T17:25:58;11.8;;;3.2;;
50651;SDS011;66928;52.086;5.240;2023-03-14T17:27:36;10.1;;;3.2;;
50651;SDS011;66928;52.086;5.240;2023-03-14T17:30:49;9.81;;;3.1;;
50651;SDS011;66928;52.086;5.240;2023-03-14T17:32:27;10.7;;;3.1;;
50651;SDS011;66928;52.086;5.240;2023-03-14T17:34:03;11.0;;;3.2;;
50651;SDS011;66928;52.086;5.240;2023-03-14T17:37:17;10.4;;;3.2;;
50651;SDS011;66928;52.086;5.240;2023-03-14T17:38:53;11.7;;;3.2;;
50651;SDS011;66928;52.086;5.240;2023-03-14T17:40:30;9.0;;;2.7;;
50651;SDS011;66928;52.086;5.240;2023-03-14T17:42:07;8.71;;;3.6;;
50651;SDS011;66928;52.086;5.240;2023-03-14T17:45:19;10.8;;;3.1;;
50651;SDS011;66928;52.086;5.240;2023-03-14T17:46:56;11.0;;;3.2;;
50651;SDS011;66928;52.086;5.240;2023-03-14T17:48:32;11.6;;;3.8;;
50651;SDS011;66928;52.086;5.240;2023-03-14T17:51:46;9.9;;;3.5;;
50651;SDS011;66928;52.086;5.240;2023-03-14T17:53:23;10.8;;;3.7;;
50651;SDS011;66928;52.086;5.240;2023-03-14T17:55:00;11.6;;;3.8;;
50651;SDS011;66928;52.086;5.240;2023-03-14T17:56:37;7.2;;;2.7;;
50651;SDS011;66928;52.086;5.240;2023-03-14T17:59:49;10.8;;;2.9;;
50651;SDS011;66928;52.086;5.240;2023-03-14T18:01:25;8.4;;;2.7;;
50651;SDS011;66928;52.086;5.240;2023-03-14T18:03:01;9.1;;;3.0;;
50651;SDS011;66928;52.086;5.240;2023-03-14T18:06:14;12.1;;;3.6;;
50651;SDS011;66928;52.086;5.240;2023-03-14T18:07:52;10.9;;;3.3;;
50651;SDS011;66928;52.086;5.240;2023-03-14T18:09:28;10.8;;;3.2;;
50651;SDS011;66928;52.086;5.240;2023-03-14T18:12:41;11.2;;;2.9;;
50651;SDS011;66928;52.086;5.240;2023-03-14T18:14:18;9.71;;;2.7;;
50651;SDS011;66928;52.086;5.240;2023-03-14T18:15:54;8.4;;;3.0;;
50651;SDS011;66928;52.086;5.240;2023-03-14T18:19:07;10.0;;;3.8;;
50651;SDS011;66928;52.086;5.240;2023-03-14T18:20:47;12.4;;;4.0;;
50651;SDS011;66928;52.086;5.240;2023-03-14T18:22:24;8.4;;;2.9;;
50651;SDS011;66928;52.086;5.240;2023-03-14T18:24:00;10.6;;;3.0;;
50651;SDS011;66928;52.086;5.240;2023-03-14T18:27:12;10.8;;;3.5;;
50651;SDS011;66928;52.086;5.240;2023-03-14T18:28:48;7.7;;;2.7;;
50651;SDS011;66928;52.086;5.240;2023-03-14T18:30:24;12.8;;;3.5;;
50651;SDS011;66928;52.086;5.240;2023-03-14T18:33:37;9.31;;;3.6;;
50651;SDS011;66928;52.086;5.240;2023-03-14T18:35:14;9.71;;;3.3;;
50651;SDS011;66928;52.086;5.240;2023-03-14T18:36:51;9.9;;;3.0;;
50651;SDS011;66928;52.086;5.240;2023-03-14T18:38:28;10.9;;;3.2;;
50651;SDS011;66928;52.086;5.240;2023-03-14T18:41:42;9.21;;;3.4;;
50651;SDS011;66928;52.086;5.240;2023-03-14T18:43:17;11.5;;;3.8;;
50651;SDS011;66928;52.086;5.240;2023-03-14T18:44:53;9.21;;;3.2;;
50651;SDS011;66928;52.086;5.240;2023-03-14T18:48:06;10.9;;;3.9;;
50651;SDS011;66928;52.086;5.240;2023-03-14T18:49:43;11.5;;;3.4;;
50651;SDS011;66928;52.086;5.240;2023-03-14T18:51:19;7.7;;;2.7;;
50651;SDS011;66928;52.086;5.240;2023-03-14T18:54:31;8.31;;;3.1;;
50651;SDS011;66928;52.086;5.240;2023-03-14T18:56:07;8.81;;;3.0;;
50651;SDS011;66928;52.086;5.240;2023-03-14T18:57:44;8.4;;;2.7;;
50651;SDS011;66928;52.086;5.240;2023-03-14T19:00:57;8.4;;;2.7;;
50651;SDS011;66928;52.086;5.240;2023-03-14T19:02:35;8.5;;;2.9;;
50651;SDS011;66928;52.086;5.240;2023-03-14T19:04:11;7.9;;;3.2;;
50651;SDS011;66928;52.086;5.240;2023-03-14T19:05:47;9.0;;;3.2;;
50651;SDS011;66928;52.086;5.240;2023-03-14T19:09:00;9.81;;;3.4;;
50651;SDS011;66928;52.086;5.240;2023-03-14T19:10:37;8.2;;;3.8;;
50651;SDS011;66928;52.086;5.240;2023-03-14T19:12:13;9.31;;;3.7;;
50651;SDS011;66928;52.086;5.240;2023-03-14T19:15:27;10.4;;;3.8;;
50651;SDS011;66928;52.086;5.240;2023-03-14T19:17:03;9.1;;;3.2;;
50651;SDS011;66928;52.086;5.240;2023-03-14T19:18:40;9.71;;;3.3;;
50651;SDS011;66928;52.086;5.240;2023-03-14T19:20:17;9.31;;;3.3;;
50651;SDS011;66928;52.086;5.240;2023-03-14T19:23:29;9.0;;;3.8;;
50651;SDS011;66928;52.086;5.240;2023-03-14T19:25:08;12.9;;;5.11;;
50651;SDS011;66928;52.086;5.240;2023-03-14T19:26:45;10.0;;;4.41;;
50651;SDS011;66928;52.086;5.240;2023-03-14T19:29:59;13.2;;;4.91;;
50651;SDS011;66928;52.086;5.240;2023-03-14T19:31:35;12.8;;;4.5;;